createdAt,value
2016-09-28T00:00:12.745Z,966.21
2016-09-28T00:01:11.777Z,966.22
2016-09-28T00:02:10.909Z,966.20
2016-09-28T00:03:12.067Z,966.22
2016-09-28T00:04:11.015Z,966.18
2016-09-28T00:05:13.089Z,966.18
2016-09-28T00:06:11.950Z,966.21
2016-09-28T00:07:11.938Z,966.16
2016-09-28T00:08:12.835Z,966.15
2016-09-28T00:09:10.055Z,966.15
2016-09-28T00:10:12.554Z,966.15
2016-09-28T00:11:10.852Z,966.18
2016-09-28T00:12:12.064Z,966.16
2016-09-28T00:13:13.039Z,966.14
2016-09-28T00:14:12.046Z,966.17
2016-09-28T00:15:13.638Z,966.17
2016-09-28T00:16:12.929Z,966.22
2016-09-28T00:17:13.614Z,966.24
2016-09-28T00:18:12.629Z,966.21
2016-09-28T00:19:13.340Z,966.23
2016-09-28T00:20:15.199Z,966.23
2016-09-28T00:21:12.209Z,966.25
2016-09-28T00:22:13.888Z,966.25
2016-09-28T00:23:11.786Z,966.25
2016-09-28T00:24:12.409Z,966.21
2016-09-28T00:25:12.457Z,966.21
2016-09-28T00:26:13.234Z,966.21
2016-09-28T00:27:12.832Z,966.21
2016-09-28T00:28:11.798Z,966.19
2016-09-28T00:29:11.777Z,966.22
2016-09-28T00:30:11.888Z,966.19
2016-09-28T00:31:12.689Z,966.23
2016-09-28T00:32:13.244Z,966.20
2016-09-28T00:33:12.232Z,966.20
2016-09-28T00:34:12.663Z,966.24
2016-09-28T00:35:13.400Z,966.24
2016-09-28T00:36:12.498Z,966.21
2016-09-28T00:37:12.360Z,966.16
2016-09-28T00:38:12.357Z,966.16
2016-09-28T00:39:12.999Z,966.22
2016-09-28T00:40:18.646Z,966.20
2016-09-28T00:41:12.759Z,966.20
2016-09-28T00:42:12.955Z,966.21
2016-09-28T00:43:11.926Z,966.19
2016-09-28T00:44:11.869Z,966.24
2016-09-28T00:45:11.788Z,966.26
2016-09-28T00:46:11.763Z,966.18
2016-09-28T00:47:11.716Z,966.21
2016-09-28T00:48:12.644Z,966.21
2016-09-28T00:49:14.399Z,966.22
2016-09-28T00:50:10.536Z,966.24
2016-09-28T00:51:11.356Z,966.24
2016-09-28T00:52:13.087Z,966.29
2016-09-28T00:53:10.788Z,966.22
2016-09-28T00:54:12.605Z,966.19
2016-09-28T00:55:14.993Z,966.17
2016-09-28T00:56:12.083Z,966.23
2016-09-28T00:57:12.046Z,966.20
2016-09-28T00:58:12.883Z,966.23
2016-09-28T00:59:12.321Z,966.26
2016-09-28T01:00:13.931Z,966.23
2016-09-28T01:01:13.387Z,966.25
2016-09-28T01:02:12.973Z,966.24
2016-09-28T01:03:16.072Z,966.27
2016-09-28T01:04:12.151Z,966.29
2016-09-28T01:05:12.124Z,966.23
2016-09-28T01:06:14.696Z,966.23
2016-09-28T01:07:13.351Z,966.23
2016-09-28T01:08:12.461Z,966.23
2016-09-28T01:09:15.036Z,966.20
2016-09-28T01:10:12.910Z,966.20
2016-09-28T01:11:12.645Z,966.22
2016-09-28T01:12:13.182Z,966.20
2016-09-28T01:13:12.266Z,966.23
2016-09-28T01:14:13.166Z,966.20
2016-09-28T01:15:14.918Z,966.21
2016-09-28T01:16:14.299Z,966.19
2016-09-28T01:17:13.964Z,966.22
2016-09-28T01:18:14.462Z,966.20
2016-09-28T01:19:11.855Z,966.21
2016-09-28T01:20:15.345Z,966.22
2016-09-28T01:21:12.194Z,966.23
2016-09-28T01:22:14.373Z,966.22
2016-09-28T01:23:13.186Z,966.22
2016-09-28T01:24:13.084Z,966.21
2016-09-28T01:25:13.510Z,966.21
2016-09-28T01:26:14.706Z,966.19
2016-09-28T01:27:15.135Z,966.22
2016-09-28T01:28:13.423Z,966.19
2016-09-28T01:29:12.475Z,966.19
2016-09-28T01:30:12.436Z,966.20
2016-09-28T01:31:15.226Z,966.15
2016-09-28T01:32:13.915Z,966.20
2016-09-28T01:33:12.763Z,966.19
2016-09-28T01:34:13.593Z,966.20
2016-09-28T01:35:13.375Z,966.25
2016-09-28T01:36:12.370Z,966.24
2016-09-28T01:37:13.684Z,966.22
2016-09-28T01:38:14.040Z,966.23
2016-09-28T01:39:14.068Z,966.25
2016-09-28T01:40:12.475Z,966.25
2016-09-28T01:41:14.442Z,966.23
2016-09-28T01:42:12.315Z,966.26
2016-09-28T01:43:12.412Z,966.30
2016-09-28T01:44:13.956Z,966.30
2016-09-28T01:45:14.342Z,966.27
2016-09-28T01:46:13.017Z,966.27
2016-09-28T01:47:10.139Z,966.26
2016-09-28T01:48:14.795Z,966.24
2016-09-28T01:49:12.012Z,966.24
2016-09-28T01:50:12.620Z,966.25
2016-09-28T01:51:14.186Z,966.27
2016-09-28T01:52:12.122Z,966.30
2016-09-28T01:53:14.743Z,966.26
2016-09-28T01:54:13.958Z,966.29
2016-09-28T01:55:13.372Z,966.27
2016-09-28T01:56:13.614Z,966.25
2016-09-28T01:57:13.678Z,966.27
2016-09-28T01:58:13.235Z,966.24
2016-09-28T01:59:12.351Z,966.20
2016-09-28T02:00:14.702Z,966.23
2016-09-28T02:01:15.663Z,966.24
2016-09-28T02:02:12.609Z,966.27
2016-09-28T02:03:13.022Z,966.24
2016-09-28T02:04:12.125Z,966.29
2016-09-28T02:05:14.600Z,966.31
2016-09-28T02:06:14.105Z,966.28
2016-09-28T02:07:12.691Z,966.27
2016-09-28T02:08:10.853Z,966.29
2016-09-28T02:09:12.222Z,966.28
2016-09-28T02:10:13.983Z,966.29
2016-09-28T02:11:10.130Z,966.28
2016-09-28T02:12:14.808Z,966.29
2016-09-28T02:13:12.450Z,966.29
2016-09-28T02:14:12.439Z,966.30
2016-09-28T02:15:13.001Z,966.29
2016-09-28T02:16:13.842Z,966.30
2016-09-28T02:17:12.612Z,966.29
2016-09-28T02:18:13.644Z,966.27
2016-09-28T02:19:12.675Z,966.29
2016-09-28T02:20:14.095Z,966.29
2016-09-28T02:21:11.251Z,966.27
2016-09-28T02:22:11.993Z,966.31
2016-09-28T02:23:11.913Z,966.27
2016-09-28T02:24:12.390Z,966.29
2016-09-28T02:25:12.634Z,966.32
2016-09-28T02:26:13.191Z,966.32
2016-09-28T02:27:12.327Z,966.34
2016-09-28T02:28:12.422Z,966.35
2016-09-28T02:29:12.342Z,966.31
2016-09-28T02:30:14.065Z,966.34
2016-09-28T02:31:14.700Z,966.33
2016-09-28T02:32:13.634Z,966.26
2016-09-28T02:33:13.712Z,966.27
2016-09-28T02:34:12.732Z,966.26
2016-09-28T02:35:12.591Z,966.27
2016-09-28T02:36:12.883Z,966.24
2016-09-28T02:37:13.810Z,966.24
2016-09-28T02:38:14.803Z,966.22
2016-09-28T02:39:13.550Z,966.25
2016-09-28T02:40:13.602Z,966.26
2016-09-28T02:41:13.609Z,966.25
2016-09-28T02:42:13.351Z,966.21
2016-09-28T02:43:14.091Z,966.22
2016-09-28T02:44:10.944Z,966.29
2016-09-28T02:45:10.030Z,966.25
2016-09-28T02:46:12.283Z,966.31
2016-09-28T02:47:12.376Z,966.32
2016-09-28T02:48:12.542Z,966.35
2016-09-28T02:49:13.854Z,966.35
2016-09-28T02:50:11.049Z,966.38
2016-09-28T02:51:12.561Z,966.34
2016-09-28T02:52:13.409Z,966.31
2016-09-28T02:53:12.621Z,966.35
2016-09-28T02:54:13.645Z,966.39
2016-09-28T02:55:12.234Z,966.37
2016-09-28T02:56:12.153Z,966.41
2016-09-28T02:57:12.284Z,966.42
2016-09-28T02:58:14.083Z,966.41
2016-09-28T02:59:12.615Z,966.43
2016-09-28T03:00:10.778Z,966.45
2016-09-28T03:01:12.032Z,966.40
2016-09-28T03:02:12.615Z,966.42
2016-09-28T03:03:11.498Z,966.40
2016-09-28T03:04:12.603Z,966.35
2016-09-28T03:05:11.769Z,966.36
2016-09-28T03:06:15.628Z,966.34
2016-09-28T03:07:13.488Z,966.34
2016-09-28T03:08:13.078Z,966.37
2016-09-28T03:09:12.640Z,966.45
2016-09-28T03:10:13.239Z,966.36
2016-09-28T03:11:12.235Z,966.39
2016-09-28T03:12:12.255Z,966.37
2016-09-28T03:13:10.870Z,966.36
2016-09-28T03:14:12.049Z,966.38
2016-09-28T03:15:12.409Z,966.42
2016-09-28T03:16:12.976Z,966.42
2016-09-28T03:17:13.193Z,966.38
2016-09-28T03:18:12.292Z,966.41
2016-09-28T03:19:12.332Z,966.37
2016-09-28T03:20:14.018Z,966.39
2016-09-28T03:21:13.185Z,966.40
2016-09-28T03:22:12.861Z,966.39
2016-09-28T03:23:17.616Z,966.38
2016-09-28T03:24:13.365Z,966.40
2016-09-28T03:25:12.240Z,966.42
2016-09-28T03:26:14.701Z,966.38
2016-09-28T03:27:13.736Z,966.39
2016-09-28T03:28:12.156Z,966.42
2016-09-28T03:29:13.200Z,966.41
2016-09-28T03:30:12.642Z,966.37
2016-09-28T03:31:11.831Z,966.42
2016-09-28T03:32:11.845Z,966.38
2016-09-28T03:33:12.563Z,966.43
2016-09-28T03:34:13.759Z,966.46
2016-09-28T03:35:12.203Z,966.49
2016-09-28T03:36:13.018Z,966.48
2016-09-28T03:37:12.833Z,966.49
2016-09-28T03:38:13.185Z,966.42
2016-09-28T03:39:12.349Z,966.44
2016-09-28T03:40:12.536Z,966.40
2016-09-28T03:41:13.598Z,966.37
2016-09-28T03:42:14.033Z,966.38
2016-09-28T03:43:12.574Z,966.31
2016-09-28T03:44:13.367Z,966.33
2016-09-28T03:45:14.182Z,966.32
2016-09-28T03:46:13.579Z,966.30
2016-09-28T03:47:12.511Z,966.31
2016-09-28T03:48:13.196Z,966.29
2016-09-28T03:49:12.650Z,966.30
2016-09-28T03:50:11.255Z,966.28
2016-09-28T03:51:12.842Z,966.25
2016-09-28T03:52:10.754Z,966.27
2016-09-28T03:53:13.275Z,966.26
2016-09-28T03:54:10.959Z,966.29
2016-09-28T03:55:12.682Z,966.26
2016-09-28T03:56:13.948Z,966.29
2016-09-28T03:57:13.883Z,966.35
2016-09-28T03:58:12.291Z,966.40
2016-09-28T03:59:12.975Z,966.40
2016-09-28T04:00:12.536Z,966.44
2016-09-28T04:01:13.015Z,966.45
2016-09-28T04:02:10.180Z,966.45
2016-09-28T04:03:13.011Z,966.50
2016-09-28T04:04:12.127Z,966.51
2016-09-28T04:05:10.987Z,966.49
2016-09-28T04:06:18.681Z,966.56
2016-09-28T04:07:13.432Z,966.59
2016-09-28T04:08:10.666Z,966.54
2016-09-28T04:09:12.573Z,966.56
2016-09-28T04:10:12.669Z,966.59
2016-09-28T04:11:12.282Z,966.56
2016-09-28T04:12:12.262Z,966.56
2016-09-28T04:13:12.837Z,966.59
2016-09-28T04:14:17.966Z,966.54
2016-09-28T04:15:12.940Z,966.53
2016-09-28T04:16:12.004Z,966.55
2016-09-28T04:17:13.604Z,966.58
2016-09-28T04:18:15.359Z,966.55
2016-09-28T04:19:12.838Z,966.55
2016-09-28T04:20:12.394Z,966.55
2016-09-28T04:21:12.456Z,966.52
2016-09-28T04:22:12.600Z,966.53
2016-09-28T04:23:13.176Z,966.54
2016-09-28T04:24:13.445Z,966.52
2016-09-28T04:25:15.154Z,966.53
2016-09-28T04:26:17.353Z,966.53
2016-09-28T04:27:14.377Z,966.54
2016-09-28T04:28:12.463Z,966.54
2016-09-28T04:29:11.323Z,966.55
2016-09-28T04:30:10.585Z,966.56
2016-09-28T04:31:13.354Z,966.56
2016-09-28T04:32:12.475Z,966.52
2016-09-28T04:33:13.966Z,966.57
2016-09-28T04:34:12.070Z,966.54
2016-09-28T04:35:12.613Z,966.52
2016-09-28T04:36:10.808Z,966.56
2016-09-28T04:37:13.249Z,966.56
2016-09-28T04:38:12.193Z,966.55
2016-09-28T04:39:12.165Z,966.53
2016-09-28T04:40:12.618Z,966.56
2016-09-28T04:41:13.010Z,966.52
2016-09-28T04:42:13.864Z,966.55
2016-09-28T04:43:11.946Z,966.57
2016-09-28T04:44:14.678Z,966.61
2016-09-28T04:45:13.295Z,966.58
2016-09-28T04:46:12.852Z,966.58
2016-09-28T04:47:11.924Z,966.56
2016-09-28T04:48:12.012Z,966.57
2016-09-28T04:49:13.682Z,966.58
2016-09-28T04:50:12.617Z,966.56
2016-09-28T04:51:12.502Z,966.54
2016-09-28T04:52:12.393Z,966.52
2016-09-28T04:53:12.355Z,966.51
2016-09-28T04:54:12.866Z,966.54
2016-09-28T04:55:12.473Z,966.54
2016-09-28T04:56:12.524Z,966.55
2016-09-28T04:57:12.552Z,966.49
2016-09-28T04:58:12.598Z,966.50
2016-09-28T04:59:12.550Z,966.46
2016-09-28T05:00:13.640Z,966.50
2016-09-28T05:01:13.661Z,966.48
2016-09-28T05:02:13.420Z,966.50
2016-09-28T05:03:13.212Z,966.52
2016-09-28T05:04:13.039Z,966.54
2016-09-28T05:05:13.644Z,966.53
2016-09-28T05:06:13.218Z,966.57
2016-09-28T05:07:13.914Z,966.58
2016-09-28T05:08:12.547Z,966.57
2016-09-28T05:09:14.195Z,966.59
2016-09-28T05:10:12.174Z,966.59
2016-09-28T05:11:13.079Z,966.64
2016-09-28T05:12:12.509Z,966.64
2016-09-28T05:13:11.268Z,966.61
2016-09-28T05:14:12.694Z,966.64
2016-09-28T05:15:13.561Z,966.60
2016-09-28T05:16:13.372Z,966.56
2016-09-28T05:17:13.055Z,966.57
2016-09-28T05:18:12.540Z,966.54
2016-09-28T05:19:10.751Z,966.52
2016-09-28T05:20:13.015Z,966.53
2016-09-28T05:21:10.052Z,966.57
2016-09-28T05:22:13.029Z,966.56
2016-09-28T05:23:12.130Z,966.56
2016-09-28T05:24:13.668Z,966.58
2016-09-28T05:25:18.794Z,966.60
2016-09-28T05:26:13.199Z,966.62
2016-09-28T05:27:09.681Z,966.62
2016-09-28T05:28:12.350Z,966.61
2016-09-28T05:29:12.953Z,966.69
2016-09-28T05:30:13.390Z,966.66
2016-09-28T05:31:14.236Z,966.66
2016-09-28T05:32:12.137Z,966.69
2016-09-28T05:33:12.024Z,966.74
2016-09-28T05:34:13.391Z,966.70
2016-09-28T05:35:12.533Z,966.70
2016-09-28T05:36:13.819Z,966.68
2016-09-28T05:37:11.935Z,966.65
2016-09-28T05:38:11.977Z,966.65
2016-09-28T05:39:12.540Z,966.63
2016-09-28T05:40:10.842Z,966.65
2016-09-28T05:41:13.806Z,966.59
2016-09-28T05:42:12.548Z,966.61
2016-09-28T05:43:12.548Z,966.54
2016-09-28T05:44:12.476Z,966.53
2016-09-28T05:45:12.825Z,966.49
2016-09-28T05:46:12.819Z,966.55
2016-09-28T05:47:11.854Z,966.54
2016-09-28T05:48:12.833Z,966.53
2016-09-28T05:49:10.129Z,966.59
2016-09-28T05:50:14.762Z,966.58
2016-09-28T05:51:12.553Z,966.61
2016-09-28T05:52:13.418Z,966.63
2016-09-28T05:53:13.013Z,966.68
2016-09-28T05:54:10.968Z,966.69
2016-09-28T05:55:12.615Z,966.70
2016-09-28T05:56:12.604Z,966.70
2016-09-28T05:57:12.613Z,966.72
2016-09-28T05:58:12.710Z,966.72
2016-09-28T05:59:13.373Z,966.72
2016-09-28T06:00:12.360Z,966.76
2016-09-28T06:01:11.132Z,966.72
2016-09-28T06:02:12.864Z,966.73
2016-09-28T06:03:13.474Z,966.75
2016-09-28T06:04:14.192Z,966.75
2016-09-28T06:05:12.833Z,966.76
2016-09-28T06:06:12.371Z,966.74
2016-09-28T06:07:13.365Z,966.76
2016-09-28T06:08:12.883Z,966.80
2016-09-28T06:09:12.580Z,966.84
2016-09-28T06:10:13.493Z,966.87
2016-09-28T06:11:13.003Z,966.89
2016-09-28T06:12:12.603Z,966.92
2016-09-28T06:13:13.198Z,966.92
2016-09-28T06:14:12.561Z,966.93
2016-09-28T06:15:13.489Z,966.93
2016-09-28T06:16:13.224Z,966.92
2016-09-28T06:17:12.377Z,966.94
2016-09-28T06:18:12.304Z,966.97
2016-09-28T06:19:13.782Z,966.96
2016-09-28T06:20:13.571Z,966.99
2016-09-28T06:21:12.542Z,966.96
2016-09-28T06:22:12.698Z,966.99
2016-09-28T06:23:13.239Z,967.00
2016-09-28T06:24:14.055Z,967.03
2016-09-28T06:25:12.039Z,967.07
2016-09-28T06:26:10.916Z,967.08
2016-09-28T06:27:13.024Z,967.07
2016-09-28T06:28:12.354Z,967.10
2016-09-28T06:29:12.454Z,967.10
2016-09-28T06:30:14.205Z,967.11
2016-09-28T06:31:12.844Z,967.14
2016-09-28T06:32:10.802Z,967.19
2016-09-28T06:33:12.303Z,967.21
2016-09-28T06:34:13.221Z,967.25
2016-09-28T06:35:12.273Z,967.19
2016-09-28T06:36:14.115Z,967.22
2016-09-28T06:37:12.651Z,967.22
2016-09-28T06:38:12.533Z,967.25
2016-09-28T06:39:13.013Z,967.24
2016-09-28T06:40:12.128Z,967.24
2016-09-28T06:41:12.311Z,967.26
2016-09-28T06:42:13.424Z,967.28
2016-09-28T06:43:11.218Z,967.23
2016-09-28T06:44:13.585Z,967.20
2016-09-28T06:45:13.030Z,967.19
2016-09-28T06:46:11.991Z,967.21
2016-09-28T06:47:12.040Z,967.17
2016-09-28T06:48:12.385Z,967.17
2016-09-28T06:49:12.391Z,967.16
2016-09-28T06:50:12.297Z,967.17
2016-09-28T06:51:12.468Z,967.20
2016-09-28T06:52:13.047Z,967.24
2016-09-28T06:53:12.767Z,967.28
2016-09-28T06:54:11.722Z,967.26
2016-09-28T06:55:12.265Z,967.27
2016-09-28T06:56:12.461Z,967.29
2016-09-28T06:57:13.481Z,967.31
2016-09-28T06:58:12.831Z,967.33
2016-09-28T06:59:17.814Z,967.31
2016-09-28T07:00:11.327Z,967.34
2016-09-28T07:01:14.109Z,967.32
2016-09-28T07:02:12.830Z,967.36
2016-09-28T07:03:12.396Z,967.37
2016-09-28T07:04:12.511Z,967.38
2016-09-28T07:05:13.594Z,967.37
2016-09-28T07:06:11.531Z,967.40
2016-09-28T07:07:13.507Z,967.41
2016-09-28T07:08:12.563Z,967.41
2016-09-28T07:09:13.002Z,967.42
2016-09-28T07:10:12.829Z,967.47
2016-09-28T07:11:12.240Z,967.48
2016-09-28T07:12:12.358Z,967.45
2016-09-28T07:13:12.927Z,967.46
2016-09-28T07:14:10.927Z,967.43
2016-09-28T07:15:12.009Z,967.36
2016-09-28T07:16:11.114Z,967.38
2016-09-28T07:17:13.586Z,967.41
2016-09-28T07:18:13.463Z,967.39
2016-09-28T07:19:12.878Z,967.43
2016-09-28T07:20:11.975Z,967.37
2016-09-28T07:21:12.058Z,967.37
2016-09-28T07:22:10.230Z,967.30
2016-09-28T07:23:11.252Z,967.39
2016-09-28T07:24:12.941Z,967.42
2016-09-28T07:25:11.962Z,967.48
2016-09-28T07:26:12.590Z,967.50
2016-09-28T07:27:12.810Z,967.50
2016-09-28T07:28:13.706Z,967.50
2016-09-28T07:29:11.394Z,967.46
2016-09-28T07:30:12.505Z,967.50
2016-09-28T07:31:13.226Z,967.50
2016-09-28T07:32:12.925Z,967.52
2016-09-28T07:33:11.974Z,967.50
2016-09-28T07:34:12.478Z,967.48
2016-09-28T07:35:13.022Z,967.49
2016-09-28T07:36:12.059Z,967.47
2016-09-28T07:37:10.916Z,967.51
2016-09-28T07:38:12.232Z,967.48
2016-09-28T07:39:12.661Z,967.43
2016-09-28T07:40:13.403Z,967.45
2016-09-28T07:41:12.447Z,967.44
2016-09-28T07:42:13.011Z,967.43
2016-09-28T07:43:12.063Z,967.40
2016-09-28T07:44:12.146Z,967.37
2016-09-28T07:45:12.066Z,967.35
2016-09-28T07:46:13.782Z,967.34
2016-09-28T07:47:11.726Z,967.32
2016-09-28T07:48:12.877Z,967.33
2016-09-28T07:49:12.625Z,967.33
2016-09-28T07:50:13.638Z,967.34
2016-09-28T07:51:13.322Z,967.37
2016-09-28T07:52:12.351Z,967.38
2016-09-28T07:53:13.005Z,967.37
2016-09-28T07:54:12.113Z,967.41
2016-09-28T07:55:12.584Z,967.46
2016-09-28T07:56:10.798Z,967.48
2016-09-28T07:57:11.931Z,967.49
2016-09-28T07:58:12.950Z,967.52
2016-09-28T07:59:11.969Z,967.50
2016-09-28T08:00:11.972Z,967.54
2016-09-28T08:01:16.389Z,967.52
2016-09-28T08:02:12.631Z,967.58
2016-09-28T08:03:13.045Z,967.56
2016-09-28T08:04:12.032Z,967.59
2016-09-28T08:05:12.904Z,967.59
2016-09-28T08:06:12.015Z,967.63
2016-09-28T08:07:12.063Z,967.65
2016-09-28T08:08:12.577Z,967.67
2016-09-28T08:09:16.306Z,967.70
2016-09-28T08:10:12.475Z,967.69
2016-09-28T08:11:12.828Z,967.73
2016-09-28T08:12:12.760Z,967.71
2016-09-28T08:13:12.101Z,967.73
2016-09-28T08:14:09.569Z,967.75
2016-09-28T08:15:12.695Z,967.76
2016-09-28T08:16:14.657Z,967.76
2016-09-28T08:17:13.264Z,967.79
2016-09-28T08:18:12.971Z,967.85
2016-09-28T08:19:12.561Z,967.83
2016-09-28T08:20:12.625Z,967.86
2016-09-28T08:21:13.193Z,967.87
2016-09-28T08:22:12.788Z,967.90
2016-09-28T08:23:12.018Z,967.92
2016-09-28T08:24:11.895Z,967.89
2016-09-28T08:25:13.542Z,967.90
2016-09-28T08:26:13.193Z,967.91
2016-09-28T08:27:13.405Z,967.96
2016-09-28T08:28:12.422Z,967.96
2016-09-28T08:29:13.248Z,968.00
2016-09-28T08:30:13.832Z,967.98
2016-09-28T08:31:13.564Z,967.95
2016-09-28T08:32:13.989Z,967.94
2016-09-28T08:33:12.527Z,967.94
2016-09-28T08:34:13.940Z,967.97
2016-09-28T08:35:12.386Z,967.93
2016-09-28T08:36:12.979Z,967.95
2016-09-28T08:37:12.142Z,967.91
2016-09-28T08:38:14.382Z,967.92
2016-09-28T08:39:13.106Z,967.90
2016-09-28T08:40:13.653Z,967.91
2016-09-28T08:41:12.572Z,967.88
2016-09-28T08:42:12.718Z,967.85
2016-09-28T08:43:12.631Z,967.80
2016-09-28T08:44:13.381Z,967.82
2016-09-28T08:45:12.997Z,967.80
2016-09-28T08:46:11.985Z,967.73
2016-09-28T08:47:11.971Z,967.73
2016-09-28T08:48:13.208Z,967.72
2016-09-28T08:49:09.721Z,967.74
2016-09-28T08:50:12.557Z,967.72
2016-09-28T08:51:12.595Z,967.70
2016-09-28T08:52:13.221Z,967.72
2016-09-28T08:53:12.829Z,967.77
2016-09-28T08:54:11.755Z,967.72
2016-09-28T08:55:11.679Z,967.73
2016-09-28T08:56:13.116Z,967.72
2016-09-28T08:57:10.868Z,967.72
2016-09-28T08:58:12.039Z,967.73
2016-09-28T08:59:12.733Z,967.75
2016-09-28T09:00:14.590Z,967.78
2016-09-28T09:01:12.488Z,967.80
2016-09-28T09:02:13.982Z,967.79
2016-09-28T09:03:11.829Z,967.84
2016-09-28T09:04:13.773Z,967.90
2016-09-28T09:05:12.315Z,967.88
2016-09-28T09:06:13.063Z,967.94
2016-09-28T09:07:11.980Z,967.95
2016-09-28T09:08:11.953Z,967.96
2016-09-28T09:09:13.810Z,967.95
2016-09-28T09:10:11.868Z,967.92
2016-09-28T09:11:16.145Z,967.94
2016-09-28T09:12:11.001Z,967.92
2016-09-28T09:13:12.175Z,967.84
2016-09-28T09:14:12.253Z,967.83
2016-09-28T09:15:12.986Z,967.79
2016-09-28T09:16:11.980Z,967.78
2016-09-28T09:17:10.667Z,967.76
2016-09-28T09:18:11.925Z,967.69
2016-09-28T09:19:12.821Z,967.71
2016-09-28T09:20:12.551Z,967.62
2016-09-28T09:21:13.397Z,967.59
2016-09-28T09:22:13.013Z,967.52
2016-09-28T09:23:12.559Z,967.53
2016-09-28T09:24:13.211Z,967.47
2016-09-28T09:25:13.036Z,967.48
2016-09-28T09:26:12.009Z,967.50
2016-09-28T09:27:13.832Z,967.46
2016-09-28T09:28:12.544Z,967.47
2016-09-28T09:29:13.016Z,967.49
2016-09-28T09:30:12.830Z,967.48
2016-09-28T09:31:11.827Z,967.53
2016-09-28T09:32:12.388Z,967.45
2016-09-28T09:33:13.025Z,967.50
2016-09-28T09:34:12.606Z,967.50
2016-09-28T09:35:12.535Z,967.44
2016-09-28T09:36:12.640Z,967.53
2016-09-28T09:37:12.448Z,967.48
2016-09-28T09:38:13.069Z,967.50
2016-09-28T09:39:12.576Z,967.44
2016-09-28T09:40:12.577Z,967.47
2016-09-28T09:41:12.905Z,967.48
2016-09-28T09:42:12.456Z,967.45
2016-09-28T09:43:13.752Z,967.50
2016-09-28T09:44:13.289Z,967.48
2016-09-28T09:45:13.416Z,967.49
2016-09-28T09:46:12.463Z,967.49
2016-09-28T09:47:15.398Z,967.54
2016-09-28T09:48:12.368Z,967.46
2016-09-28T09:49:12.324Z,967.45
2016-09-28T09:50:12.178Z,967.43
2016-09-28T09:51:12.987Z,967.48
2016-09-28T09:52:17.856Z,967.45
2016-09-28T09:53:14.272Z,967.49
2016-09-28T09:54:11.309Z,967.48
2016-09-28T09:55:12.995Z,967.49
2016-09-28T09:56:11.036Z,967.52
2016-09-28T09:57:10.165Z,967.47
2016-09-28T09:58:12.445Z,967.49
2016-09-28T09:59:12.441Z,967.46
2016-09-28T10:00:14.283Z,967.44
2016-09-28T10:01:12.085Z,967.46
2016-09-28T10:02:12.152Z,967.48
2016-09-28T10:03:12.801Z,967.44
2016-09-28T10:04:13.466Z,967.44
2016-09-28T10:05:12.474Z,967.43
2016-09-28T10:06:15.161Z,967.46
2016-09-28T10:07:12.839Z,967.42
2016-09-28T10:08:11.944Z,967.33
2016-09-28T10:09:11.942Z,967.31
2016-09-28T10:10:11.857Z,967.28
2016-09-28T10:11:11.815Z,967.25
2016-09-28T10:12:11.854Z,967.23
2016-09-28T10:13:12.389Z,967.27
2016-09-28T10:14:11.536Z,967.32
2016-09-28T10:15:12.609Z,967.31
2016-09-28T10:16:12.483Z,967.31
2016-09-28T10:17:13.163Z,967.26
2016-09-28T10:18:12.790Z,967.28
2016-09-28T10:19:11.785Z,967.28
2016-09-28T10:20:11.753Z,967.24
2016-09-28T10:21:13.202Z,967.22
2016-09-28T10:22:12.957Z,967.23
2016-09-28T10:23:12.033Z,967.21
2016-09-28T10:24:12.081Z,967.18
2016-09-28T10:25:10.278Z,967.20
2016-09-28T10:26:12.266Z,967.19
2016-09-28T10:27:12.318Z,967.20
2016-09-28T10:28:13.924Z,967.21
2016-09-28T10:29:11.877Z,967.22
2016-09-28T10:30:12.605Z,967.20
2016-09-28T10:31:12.456Z,967.25
2016-09-28T10:32:12.916Z,967.21
2016-09-28T10:33:10.045Z,967.23
2016-09-28T10:34:12.184Z,967.25
2016-09-28T10:35:12.390Z,967.20
2016-09-28T10:36:13.217Z,967.16
2016-09-28T10:37:11.214Z,967.17
2016-09-28T10:38:12.832Z,967.20
2016-09-28T10:39:11.932Z,967.21
2016-09-28T10:40:12.708Z,967.24
2016-09-28T10:41:13.392Z,967.25
2016-09-28T10:42:13.044Z,967.26
2016-09-28T10:43:12.017Z,967.23
2016-09-28T10:44:12.369Z,967.22
2016-09-28T10:45:12.505Z,967.23
2016-09-28T10:46:12.866Z,967.24
2016-09-28T10:47:13.428Z,967.24
2016-09-28T10:48:14.170Z,967.24
2016-09-28T10:49:12.224Z,967.27
2016-09-28T10:50:13.924Z,967.21
2016-09-28T10:51:11.803Z,967.24
2016-09-28T10:52:12.838Z,967.26
2016-09-28T10:53:11.782Z,967.24
2016-09-28T10:54:12.477Z,967.20
2016-09-28T10:55:12.832Z,967.20
2016-09-28T10:56:12.458Z,967.21
2016-09-28T10:57:12.517Z,967.19
2016-09-28T10:58:13.176Z,967.15
2016-09-28T10:59:12.318Z,967.16
2016-09-28T11:00:12.226Z,967.14
2016-09-28T11:01:12.988Z,967.13
2016-09-28T11:02:12.431Z,967.11
2016-09-28T11:03:12.498Z,967.07
2016-09-28T11:04:12.487Z,967.12
2016-09-28T11:05:12.450Z,967.09
2016-09-28T11:06:10.636Z,967.09
2016-09-28T11:07:13.399Z,967.06
2016-09-28T11:08:10.169Z,967.00
2016-09-28T11:09:12.206Z,966.98
2016-09-28T11:10:12.276Z,966.97
2016-09-28T11:11:12.860Z,966.98
2016-09-28T11:12:11.727Z,966.98
2016-09-28T11:13:12.747Z,966.96
2016-09-28T11:14:12.515Z,966.95
2016-09-28T11:15:13.025Z,966.90
2016-09-28T11:16:10.170Z,966.90
2016-09-28T11:17:12.313Z,966.84
2016-09-28T11:18:11.325Z,966.85
2016-09-28T11:19:12.305Z,966.81
2016-09-28T11:20:12.340Z,966.76
2016-09-28T11:21:12.290Z,966.73
2016-09-28T11:22:12.444Z,966.70
2016-09-28T11:23:12.359Z,966.67
2016-09-28T11:24:14.298Z,966.62
2016-09-28T11:25:12.858Z,966.65
2016-09-28T11:26:13.777Z,966.65
2016-09-28T11:27:12.847Z,966.66
2016-09-28T11:28:12.561Z,966.63
2016-09-28T11:29:18.560Z,966.59
2016-09-28T11:30:12.214Z,966.53
2016-09-28T11:31:12.205Z,966.53
2016-09-28T11:32:14.025Z,966.50
2016-09-28T11:33:11.916Z,966.45
2016-09-28T11:34:12.039Z,966.45
2016-09-28T11:35:12.598Z,966.47
2016-09-28T11:36:13.018Z,966.47
2016-09-28T11:37:12.155Z,966.46
2016-09-28T11:38:14.083Z,966.47
2016-09-28T11:39:13.053Z,966.53
2016-09-28T11:40:12.633Z,966.47
2016-09-28T11:41:12.552Z,966.50
2016-09-28T11:42:12.653Z,966.54
2016-09-28T11:43:12.853Z,966.52
2016-09-28T11:44:12.862Z,966.54
2016-09-28T11:45:11.749Z,966.51
2016-09-28T11:46:13.527Z,966.51
2016-09-28T11:47:12.545Z,966.43
2016-09-28T11:48:13.231Z,966.50
2016-09-28T11:49:12.828Z,966.49
2016-09-28T11:50:11.897Z,966.49
2016-09-28T11:51:12.822Z,966.45
2016-09-28T11:52:12.404Z,966.47
2016-09-28T11:53:12.452Z,966.44
2016-09-28T11:54:13.206Z,966.44
2016-09-28T11:55:12.167Z,966.47
2016-09-28T11:56:12.610Z,966.42
2016-09-28T11:57:12.475Z,966.37
2016-09-28T11:58:12.507Z,966.36
2016-09-28T11:59:13.231Z,966.39
2016-09-28T12:00:14.029Z,966.33
2016-09-28T12:01:12.445Z,966.34
2016-09-28T12:02:12.400Z,966.36
2016-09-28T12:03:12.449Z,966.38
2016-09-28T12:04:12.562Z,966.36
2016-09-28T12:05:13.315Z,966.36
2016-09-28T12:06:11.360Z,966.44
2016-09-28T12:07:12.889Z,966.42
2016-09-28T12:08:12.284Z,966.40
2016-09-28T12:09:12.177Z,966.37
2016-09-28T12:10:12.344Z,966.39
2016-09-28T12:11:14.318Z,966.35
2016-09-28T12:12:12.858Z,966.32
2016-09-28T12:13:09.376Z,966.28
2016-09-28T12:14:15.164Z,966.30
2016-09-28T12:15:12.642Z,966.33
2016-09-28T12:16:12.578Z,966.37
2016-09-28T12:17:13.140Z,966.33
2016-09-28T12:18:12.487Z,966.38
2016-09-28T12:19:12.377Z,966.31
2016-09-28T12:20:12.385Z,966.26
2016-09-28T12:21:13.133Z,966.19
2016-09-28T12:22:12.857Z,966.23
2016-09-28T12:23:13.232Z,966.19
2016-09-28T12:24:12.863Z,966.22
2016-09-28T12:25:13.435Z,966.24
2016-09-28T12:26:12.530Z,966.23
2016-09-28T12:27:14.165Z,966.26
2016-09-28T12:28:13.008Z,966.21